Pagrindinis puslapis
METAR-TAF:

METAR-TAF

Oro uostai :

Teller, Aliaska, Jungtinės Amerikos Valstijos

platuma: 65-14-25N, ilguma: 166-20-22W, Aukštis: 90 m

Dabartinis oras

Ataskaita buvo paskelbta 10 minutes, ne 09:22 UTC
Vėjas 10 kt iš Šiaurės Vakarų
Temperatūra -19°C
Drėgmė 84%
Slėgis 997 hPa
Matomumas: 8.0 km
Apsiniaukę ne aukštis 2900 ft
sniegas, rūkana

METAR: PATE 190922Z AUTO 31010KT 5SM -SN BR OVC029 M19/M21 A2944 RMK AO2 P0000 FZRANO

Laikas: 00:32 (09:32 UTC)


TAF: trūkstamas

Orai ataskaitas ir orų prognozės (METAR, TAF).

turimą stotys yra geltonos ir raudonos taškus žemėlapyje.

Perkelti pele per norėdami pamatyti stoties vardą.

Tada spustelėkite, norėdami matyti oro stebėjimo ir prognozės.

Norėdami pakeisti žemėlapį: spustelėkite ant žalios mygtukų su juodo kryžiaus žemyn,; žalią mygtuką su brūkšneliu, jei norite nutolinti; arba žalių rodyklių gretimoms žemėlapius.


METAR-TAF: